createdAt,value
2023-01-20T00:01:26.725Z,99.90
2023-01-20T00:03:55.015Z,99.90
2023-01-20T00:06:22.697Z,99.90
2023-01-20T00:08:53.844Z,99.90
2023-01-20T00:11:21.091Z,99.90
2023-01-20T00:13:47.947Z,99.90
2023-01-20T00:16:14.723Z,99.90
2023-01-20T00:18:41.646Z,99.90
2023-01-20T00:21:11.567Z,99.90
2023-01-20T00:23:39.048Z,99.90
2023-01-20T00:26:07.532Z,99.90
2023-01-20T00:28:35.074Z,99.90
2023-01-20T00:31:16.815Z,99.90
2023-01-20T00:33:44.114Z,99.90
2023-01-20T00:36:12.115Z,99.90
2023-01-20T00:38:39.453Z,99.90
2023-01-20T00:41:07.048Z,99.90
2023-01-20T00:43:33.843Z,99.90
2023-01-20T00:46:00.883Z,99.90
2023-01-20T00:48:27.609Z,99.90
2023-01-20T00:50:54.298Z,99.90
2023-01-20T00:53:21.273Z,99.90
2023-01-20T00:55:48.061Z,99.90
2023-01-20T00:58:14.751Z,99.90
2023-01-20T01:00:41.506Z,99.90
2023-01-20T01:03:10.167Z,99.90
2023-01-20T01:05:37.657Z,99.90
2023-01-20T01:08:04.817Z,99.90
2023-01-20T01:10:32.154Z,99.90
2023-01-20T01:13:00.392Z,99.90
2023-01-20T01:15:27.858Z,99.90
2023-01-20T01:17:55.475Z,99.90
2023-01-20T01:20:22.163Z,99.90
2023-01-20T01:22:48.987Z,99.90
2023-01-20T01:25:15.848Z,99.90
2023-01-20T01:27:43.216Z,99.90
2023-01-20T01:30:10.658Z,99.90
2023-01-20T01:32:37.416Z,99.90
2023-01-20T01:35:04.392Z,99.90
2023-01-20T01:37:31.133Z,99.90
2023-01-20T01:39:57.753Z,99.90
2023-01-20T01:42:26.316Z,99.90
2023-01-20T01:45:11.406Z,99.90
2023-01-20T01:47:40.004Z,99.90
2023-01-20T01:50:10.166Z,99.90
2023-01-20T01:52:38.012Z,99.90
2023-01-20T01:55:05.200Z,99.90
2023-01-20T01:57:32.380Z,99.90
2023-01-20T01:59:59.082Z,99.90
2023-01-20T02:02:26.015Z,99.90
2023-01-20T02:04:52.753Z,99.90
2023-01-20T02:07:21.482Z,99.90
2023-01-20T02:09:48.161Z,99.90
2023-01-20T02:12:19.763Z,99.90
2023-01-20T02:14:50.589Z,99.90
2023-01-20T02:17:31.932Z,99.90
2023-01-20T02:20:35.799Z,99.90
2023-01-20T02:23:14.544Z,99.90
2023-01-20T02:26:06.159Z,99.90
2023-01-20T02:28:35.968Z,99.90
2023-01-20T02:31:34.767Z,99.90
2023-01-20T02:34:10.776Z,99.90
2023-01-20T02:36:48.078Z,99.90
2023-01-20T02:39:34.724Z,99.90
2023-01-20T02:42:18.987Z,99.90
2023-01-20T02:44:55.563Z,99.90
2023-01-20T02:47:53.591Z,99.90
2023-01-20T02:50:25.759Z,99.90
2023-01-20T02:52:56.600Z,99.90
2023-01-20T02:55:46.116Z,99.90
2023-01-20T02:58:23.392Z,99.90
2023-01-20T03:01:00.972Z,99.90
2023-01-20T03:03:33.844Z,99.90
2023-01-20T03:06:03.884Z,99.90
2023-01-20T03:08:33.004Z,99.90
2023-01-20T03:11:04.963Z,99.90
2023-01-20T03:13:46.214Z,99.90
2023-01-20T03:16:18.116Z,99.90
2023-01-20T03:18:45.063Z,99.90
2023-01-20T03:21:13.279Z,99.90
2023-01-20T03:23:46.680Z,99.90
2023-01-20T03:26:16.382Z,99.90
2023-01-20T03:28:45.197Z,99.90
2023-01-20T03:31:19.906Z,99.90
2023-01-20T03:33:49.022Z,99.90
2023-01-20T03:36:18.275Z,99.90
2023-01-20T03:38:46.017Z,99.90
2023-01-20T03:41:34.748Z,99.90
2023-01-20T03:44:16.738Z,99.90
2023-01-20T03:46:52.789Z,99.90
2023-01-20T03:49:37.150Z,99.90
2023-01-20T03:52:16.365Z,99.90
2023-01-20T03:54:50.685Z,99.90
2023-01-20T03:57:22.830Z,99.90
2023-01-20T03:59:50.998Z,99.90
2023-01-20T04:02:18.149Z,99.90
2023-01-20T04:04:47.519Z,99.90
2023-01-20T04:07:20.470Z,99.90
2023-01-20T04:09:54.833Z,99.90
2023-01-20T04:12:21.724Z,99.90
2023-01-20T04:14:48.376Z,99.90
2023-01-20T04:17:15.563Z,99.90
2023-01-20T04:19:42.232Z,99.90
2023-01-20T04:22:27.830Z,99.90
2023-01-20T04:24:59.813Z,99.90
2023-01-20T04:27:26.436Z,99.90
2023-01-20T04:29:53.109Z,99.90
2023-01-20T04:32:19.826Z,99.90
2023-01-20T04:34:46.496Z,99.90
2023-01-20T04:37:13.191Z,99.90
2023-01-20T04:39:39.905Z,99.90
2023-01-20T04:42:06.564Z,99.90
2023-01-20T04:44:33.381Z,99.90
2023-01-20T04:47:00.105Z,99.90
2023-01-20T04:49:26.860Z,99.90
2023-01-20T04:51:53.503Z,99.90
2023-01-20T04:54:20.460Z,99.90
2023-01-20T04:56:50.164Z,99.90
2023-01-20T04:59:16.875Z,99.90
2023-01-20T05:01:43.628Z,99.90
2023-01-20T05:04:10.756Z,99.90
2023-01-20T05:06:37.529Z,99.90
2023-01-20T05:09:04.390Z,99.90
2023-01-20T05:11:31.051Z,99.90
2023-01-20T05:13:57.907Z,99.90
2023-01-20T05:16:25.961Z,99.90
2023-01-20T05:18:53.941Z,99.90
2023-01-20T05:21:20.588Z,99.90
2023-01-20T05:23:47.233Z,99.90
2023-01-20T05:26:13.968Z,99.90
2023-01-20T05:28:42.077Z,99.90
2023-01-20T05:31:09.147Z,99.90
2023-01-20T05:33:36.571Z,99.90
2023-01-20T05:36:07.771Z,99.90
2023-01-20T05:38:34.550Z,99.90
2023-01-20T05:41:01.967Z,99.90
2023-01-20T05:43:28.699Z,99.90
2023-01-20T05:45:55.628Z,99.90
2023-01-20T05:48:22.395Z,99.90
2023-01-20T05:50:49.038Z,99.90
2023-01-20T05:53:16.361Z,99.90
2023-01-20T05:55:43.248Z,99.90
2023-01-20T05:58:10.360Z,99.90
2023-01-20T06:00:37.304Z,99.90
2023-01-20T06:03:04.458Z,99.90
2023-01-20T06:05:34.603Z,99.90
2023-01-20T06:08:04.863Z,99.90
2023-01-20T06:10:31.790Z,1.00
2023-01-20T06:12:58.616Z,1.00
2023-01-20T06:15:39.588Z,1.00
2023-01-20T06:18:06.479Z,1.00
2023-01-20T06:20:33.378Z,1.00
2023-01-20T06:23:00.041Z,1.00
2023-01-20T06:25:26.743Z,1.00
2023-01-20T06:27:53.441Z,1.00
2023-01-20T06:30:20.172Z,1.00
2023-01-20T06:32:50.742Z,1.00
2023-01-20T06:35:17.543Z,1.00
2023-01-20T06:37:44.257Z,1.00
2023-01-20T06:40:11.850Z,1.00
2023-01-20T06:42:38.626Z,1.00
2023-01-20T06:45:05.734Z,1.00
2023-01-20T06:47:32.557Z,1.00
2023-01-20T06:49:59.231Z,1.00
2023-01-20T06:52:26.452Z,1.00
2023-01-20T06:54:53.156Z,99.90
2023-01-20T06:57:19.825Z,99.90
2023-01-20T06:59:46.460Z,99.90
2023-01-20T07:02:13.238Z,99.90
2023-01-20T07:04:40.220Z,99.90
2023-01-20T07:07:06.907Z,99.90
2023-01-20T07:09:33.573Z,99.90
2023-01-20T07:12:00.211Z,99.90
2023-01-20T07:14:26.920Z,99.90
2023-01-20T07:16:53.764Z,99.90
2023-01-20T07:19:20.486Z,99.90
2023-01-20T07:21:47.172Z,99.90
2023-01-20T07:24:13.828Z,99.90
2023-01-20T07:26:40.545Z,99.90
2023-01-20T07:29:07.204Z,99.90
2023-01-20T07:31:34.345Z,99.90
2023-01-20T07:34:01.139Z,99.90
2023-01-20T07:36:28.042Z,99.90
2023-01-20T07:38:54.986Z,99.90
2023-01-20T07:41:22.411Z,99.90
2023-01-20T07:43:51.035Z,99.90
2023-01-20T07:46:19.001Z,99.90
2023-01-20T07:48:46.261Z,99.90
2023-01-20T07:51:14.867Z,99.90
2023-01-20T07:53:47.092Z,99.90
2023-01-20T07:56:33.007Z,99.90
2023-01-20T07:58:59.784Z,99.90
2023-01-20T08:01:29.058Z,99.90
2023-01-20T08:03:56.301Z,99.90
2023-01-20T08:06:25.452Z,99.90
2023-01-20T08:08:52.606Z,99.90
2023-01-20T08:11:21.317Z,99.90
2023-01-20T08:13:48.206Z,99.90
2023-01-20T08:16:16.874Z,99.90
2023-01-20T08:18:44.357Z,99.90
2023-01-20T08:21:37.514Z,99.90
2023-01-20T08:24:06.466Z,99.90
2023-01-20T08:26:34.118Z,99.90
2023-01-20T08:29:09.964Z,99.90
2023-01-20T08:31:37.428Z,99.90
2023-01-20T08:34:04.780Z,99.90
2023-01-20T08:36:34.652Z,99.90
2023-01-20T08:39:03.667Z,99.90
2023-01-20T08:41:33.814Z,99.90
2023-01-20T08:44:02.244Z,99.90
2023-01-20T08:46:29.017Z,99.90
2023-01-20T08:48:56.184Z,99.90
2023-01-20T08:51:31.451Z,99.90
2023-01-20T08:53:59.380Z,99.90
2023-01-20T08:56:26.679Z,99.90
2023-01-20T08:58:54.010Z,99.90
2023-01-20T09:01:27.550Z,99.90
2023-01-20T09:04:05.522Z,99.90
2023-01-20T09:06:42.527Z,99.90
2023-01-20T09:09:10.131Z,99.90
2023-01-20T09:11:36.986Z,99.90
2023-01-20T09:14:03.784Z,99.90
2023-01-20T09:16:30.527Z,99.90
2023-01-20T09:18:57.238Z,99.90
2023-01-20T09:21:24.019Z,99.90
2023-01-20T09:23:51.159Z,99.90
2023-01-20T09:26:34.185Z,99.90
2023-01-20T09:29:09.240Z,99.90
2023-01-20T09:31:38.414Z,99.90
2023-01-20T09:34:05.389Z,99.90
2023-01-20T09:36:32.063Z,99.90
2023-01-20T09:39:17.352Z,99.90
2023-01-20T09:42:06.720Z,99.90
2023-01-20T09:44:50.297Z,99.90
2023-01-20T09:47:30.967Z,99.90
2023-01-20T09:50:41.942Z,99.90
2023-01-20T09:53:34.420Z,99.90
2023-01-20T09:56:02.554Z,99.90
2023-01-20T09:58:40.334Z,99.90
2023-01-20T10:01:19.291Z,99.90
2023-01-20T10:03:53.568Z,99.90
2023-01-20T10:06:31.725Z,99.90
2023-01-20T10:09:06.667Z,99.90
2023-01-20T10:11:46.322Z,99.90
2023-01-20T10:14:29.594Z,99.90
2023-01-20T10:17:04.645Z,99.90
2023-01-20T10:19:49.895Z,99.90
2023-01-20T10:22:25.946Z,99.90
2023-01-20T10:25:06.367Z,99.90
2023-01-20T10:27:36.027Z,99.90
2023-01-20T10:30:11.564Z,96.40
2023-01-20T10:32:47.353Z,98.40
2023-01-20T10:35:19.695Z,99.90
2023-01-20T10:37:46.442Z,99.90
2023-01-20T10:40:16.724Z,99.90
2023-01-20T10:42:49.698Z,93.70
2023-01-20T10:45:27.113Z,93.40
2023-01-20T10:48:32.191Z,90.10
2023-01-20T10:51:19.011Z,91.30
2023-01-20T10:53:58.425Z,92.20
2023-01-20T10:56:36.341Z,95.40
2023-01-20T10:59:17.940Z,93.70
2023-01-20T11:01:56.279Z,92.10
2023-01-20T11:04:26.493Z,92.90
2023-01-20T11:06:57.316Z,92.60
2023-01-20T11:09:34.351Z,93.20
2023-01-20T11:12:04.809Z,92.30
2023-01-20T11:14:31.918Z,91.90
2023-01-20T11:17:12.935Z,90.30
2023-01-20T11:19:54.799Z,92.90
2023-01-20T11:22:33.275Z,91.10
2023-01-20T11:25:01.704Z,90.40
2023-01-20T11:27:43.877Z,90.10
2023-01-20T11:30:27.923Z,98.20
2023-01-20T11:33:09.205Z,84.60
2023-01-20T11:35:36.075Z,85.60
2023-01-20T11:38:30.996Z,79.50
2023-01-20T11:40:57.946Z,81.60
2023-01-20T11:43:29.171Z,81.50
2023-01-20T11:46:23.586Z,81.10
2023-01-20T11:48:50.609Z,74.30
2023-01-20T11:51:25.578Z,71.40
2023-01-20T11:54:13.643Z,74.50
2023-01-20T11:56:43.804Z,72.60
2023-01-20T11:59:27.849Z,66.60
2023-01-20T12:02:19.347Z,59.10
2023-01-20T12:05:04.784Z,48.50
2023-01-20T12:07:47.212Z,47.20
2023-01-20T12:10:18.933Z,44.30
2023-01-20T12:12:51.459Z,46.10
2023-01-20T12:15:33.410Z,48.20
2023-01-20T12:18:09.683Z,50.00
2023-01-20T12:20:53.580Z,51.80
2023-01-20T12:23:45.742Z,50.80
2023-01-20T12:26:21.119Z,48.10
2023-01-20T12:29:06.696Z,44.30
2023-01-20T12:31:33.883Z,45.00
2023-01-20T12:34:27.849Z,47.40
2023-01-20T12:37:17.983Z,50.10
2023-01-20T12:40:21.987Z,46.30
2023-01-20T12:43:17.116Z,47.60
2023-01-20T12:45:59.583Z,44.90
2023-01-20T12:48:46.075Z,46.90
2023-01-20T12:51:18.763Z,46.20
2023-01-20T12:54:06.700Z,46.70
2023-01-20T12:57:00.442Z,48.70
2023-01-20T12:59:47.126Z,52.30
2023-01-20T13:02:18.465Z,55.60
2023-01-20T13:05:22.143Z,54.00
2023-01-20T13:08:02.159Z,50.10
2023-01-20T13:10:35.048Z,50.00
2023-01-20T13:13:32.650Z,42.90
2023-01-20T13:16:34.409Z,45.90
2023-01-20T13:19:06.710Z,47.30
2023-01-20T13:21:34.687Z,49.20
2023-01-20T13:24:04.347Z,46.60
2023-01-20T13:26:32.508Z,46.40
2023-01-20T13:29:00.506Z,48.20
2023-01-20T13:31:51.009Z,49.60
2023-01-20T13:34:24.223Z,46.20
2023-01-20T13:37:25.322Z,44.80
2023-01-20T13:39:54.236Z,46.10
2023-01-20T13:42:29.417Z,46.10
2023-01-20T13:45:11.496Z,41.80
2023-01-20T13:48:08.281Z,44.00
2023-01-20T13:50:37.406Z,43.30
2023-01-20T13:53:15.009Z,44.40
2023-01-20T13:55:41.810Z,44.70
2023-01-20T13:58:20.783Z,45.60
2023-01-20T14:01:02.604Z,47.20
2023-01-20T14:03:35.061Z,34.90
2023-01-20T14:06:07.139Z,35.50
2023-01-20T14:08:52.014Z,37.50
2023-01-20T14:11:24.340Z,38.30
2023-01-20T14:13:54.120Z,36.90
2023-01-20T14:16:26.742Z,39.90
2023-01-20T14:19:13.633Z,37.90
2023-01-20T14:21:41.763Z,35.30
2023-01-20T14:24:26.756Z,37.00
2023-01-20T14:27:11.207Z,34.70
2023-01-20T14:29:39.569Z,33.80
2023-01-20T14:32:38.784Z,28.90
2023-01-20T14:35:17.931Z,29.10
2023-01-20T14:37:50.279Z,36.70
2023-01-20T14:40:23.639Z,29.30
2023-01-20T14:43:01.667Z,27.40
2023-01-20T14:45:31.857Z,26.80
2023-01-20T14:48:01.801Z,28.10
2023-01-20T14:50:29.088Z,29.00
2023-01-20T14:52:56.203Z,27.50
2023-01-20T14:55:44.310Z,27.30
2023-01-20T14:58:18.739Z,28.70
2023-01-20T15:00:54.516Z,29.30
2023-01-20T15:03:28.613Z,33.30
2023-01-20T15:05:59.608Z,37.40
2023-01-20T15:08:32.474Z,38.90
2023-01-20T15:11:24.137Z,39.60
2023-01-20T15:14:05.778Z,40.30
2023-01-20T15:16:59.416Z,40.60
2023-01-20T15:19:33.621Z,43.70
2023-01-20T15:22:23.130Z,46.60
2023-01-20T15:24:50.797Z,50.90
2023-01-20T15:27:27.014Z,52.00
2023-01-20T15:30:21.640Z,52.10
2023-01-20T15:32:49.034Z,54.50
2023-01-20T15:35:19.714Z,51.20
2023-01-20T15:37:46.777Z,53.20
2023-01-20T15:40:24.706Z,53.90
2023-01-20T15:42:51.760Z,57.40
2023-01-20T15:45:18.734Z,54.10
2023-01-20T15:47:46.736Z,54.80
2023-01-20T15:50:22.583Z,66.00
2023-01-20T15:52:49.448Z,63.60
2023-01-20T15:55:18.101Z,63.30
2023-01-20T15:57:46.995Z,67.30
2023-01-20T16:00:19.394Z,71.80
2023-01-20T16:02:46.263Z,77.00
2023-01-20T16:05:15.769Z,79.80
2023-01-20T16:07:44.252Z,85.50
2023-01-20T16:10:16.865Z,91.50
2023-01-20T16:12:44.791Z,92.10
2023-01-20T16:15:16.987Z,90.90
2023-01-20T16:17:43.992Z,91.90
2023-01-20T16:20:18.344Z,91.80
2023-01-20T16:22:45.154Z,92.40
2023-01-20T16:25:11.938Z,90.60
2023-01-20T16:27:38.668Z,91.90
2023-01-20T16:30:12.919Z,90.20
2023-01-20T16:32:39.945Z,90.60
2023-01-20T16:35:06.973Z,91.70
2023-01-20T16:37:33.649Z,92.00
2023-01-20T16:40:00.466Z,92.40
2023-01-20T16:42:27.178Z,95.50
2023-01-20T16:44:54.003Z,94.40
2023-01-20T16:47:20.684Z,93.20
2023-01-20T16:49:47.358Z,94.90
2023-01-20T16:52:14.017Z,93.00
2023-01-20T16:54:40.659Z,94.40
2023-01-20T16:57:08.353Z,96.20
2023-01-20T16:59:35.332Z,97.20
2023-01-20T17:02:02.064Z,94.90
2023-01-20T17:04:29.525Z,95.10
2023-01-20T17:06:56.354Z,95.40
2023-01-20T17:09:23.009Z,96.60
2023-01-20T17:11:49.672Z,97.60
2023-01-20T17:14:16.354Z,99.40
2023-01-20T17:16:43.094Z,99.90
2023-01-20T17:19:10.265Z,99.90
2023-01-20T17:21:39.125Z,99.90
2023-01-20T17:24:06.444Z,99.90
2023-01-20T17:26:33.138Z,98.20
2023-01-20T17:29:03.391Z,98.60
2023-01-20T17:31:33.064Z,99.70
2023-01-20T17:34:00.015Z,99.90
2023-01-20T17:36:26.812Z,99.90
2023-01-20T17:38:53.699Z,99.90
2023-01-20T17:41:20.559Z,99.90
2023-01-20T17:43:47.256Z,99.90
2023-01-20T17:46:20.257Z,99.90
2023-01-20T17:48:47.436Z,99.90
2023-01-20T17:51:25.073Z,99.90
2023-01-20T17:53:52.229Z,99.90
2023-01-20T17:56:21.135Z,99.90
2023-01-20T17:58:49.017Z,99.90
2023-01-20T18:01:18.270Z,99.90
2023-01-20T18:03:46.318Z,99.90
2023-01-20T18:06:15.068Z,99.90
2023-01-20T18:08:42.870Z,99.90
2023-01-20T18:11:21.682Z,99.90
2023-01-20T18:13:49.955Z,99.90
2023-01-20T18:16:18.737Z,99.90
2023-01-20T18:18:46.808Z,99.90
2023-01-20T18:21:16.711Z,99.90
2023-01-20T18:23:44.349Z,99.90
2023-01-20T18:26:13.733Z,99.90
2023-01-20T18:28:41.478Z,99.90
2023-01-20T18:31:11.491Z,99.90
2023-01-20T18:33:44.101Z,99.90
2023-01-20T18:36:14.894Z,99.90
2023-01-20T18:38:44.566Z,99.90
2023-01-20T18:41:13.256Z,99.90
2023-01-20T18:43:40.971Z,99.90
2023-01-20T18:46:08.926Z,99.90
2023-01-20T18:48:39.995Z,99.90
2023-01-20T18:51:10.129Z,99.90
2023-01-20T18:53:37.253Z,99.90
2023-01-20T18:56:07.009Z,99.90
2023-01-20T18:58:35.225Z,99.90
2023-01-20T19:01:13.115Z,99.90
2023-01-20T19:03:40.442Z,99.90
2023-01-20T19:06:12.487Z,99.90
2023-01-20T19:08:41.432Z,99.90
2023-01-20T19:11:15.557Z,99.90
2023-01-20T19:13:43.537Z,99.90
2023-01-20T19:16:12.741Z,99.90
2023-01-20T19:18:44.580Z,99.90
2023-01-20T19:21:14.803Z,99.90
2023-01-20T19:23:42.720Z,99.90
2023-01-20T19:26:12.325Z,99.90
2023-01-20T19:28:40.190Z,99.90
2023-01-20T19:31:12.930Z,99.90
2023-01-20T19:33:40.065Z,99.90
2023-01-20T19:36:10.744Z,99.90
2023-01-20T19:38:38.131Z,99.90
2023-01-20T19:41:10.810Z,99.90
2023-01-20T19:43:37.585Z,99.90
2023-01-20T19:46:07.169Z,99.90
2023-01-20T19:48:34.085Z,99.90
2023-01-20T19:51:12.945Z,99.90
2023-01-20T19:53:40.082Z,99.90
2023-01-20T19:56:12.272Z,99.90
2023-01-20T19:58:39.355Z,99.90
2023-01-20T20:01:10.466Z,99.90
2023-01-20T20:03:37.690Z,99.90
2023-01-20T20:06:06.063Z,99.90
2023-01-20T20:08:33.680Z,99.90
2023-01-20T20:11:00.386Z,99.90
2023-01-20T20:13:27.028Z,99.90
2023-01-20T20:16:02.268Z,99.90
2023-01-20T20:18:28.984Z,99.90
2023-01-20T20:20:56.131Z,99.90
2023-01-20T20:23:23.392Z,99.90
2023-01-20T20:25:57.717Z,99.90
2023-01-20T20:28:25.675Z,99.90
2023-01-20T20:30:55.603Z,99.90
2023-01-20T20:33:26.623Z,99.90
2023-01-20T20:35:53.777Z,99.90
2023-01-20T20:38:20.838Z,99.90
2023-01-20T20:40:47.871Z,99.90
2023-01-20T20:43:14.921Z,99.90
2023-01-20T20:45:42.069Z,99.90
2023-01-20T20:48:10.346Z,99.90
2023-01-20T20:50:38.208Z,99.90
2023-01-20T20:53:05.262Z,99.90
2023-01-20T20:55:32.317Z,99.90
2023-01-20T20:57:59.465Z,99.90
2023-01-20T21:00:28.351Z,99.90
2023-01-20T21:02:56.144Z,99.90
2023-01-20T21:05:23.570Z,99.90
2023-01-20T21:07:53.095Z,99.90
2023-01-20T21:10:28.826Z,1.00
2023-01-20T21:13:13.121Z,1.00
2023-01-20T21:15:43.815Z,1.00
2023-01-20T21:18:11.091Z,1.00
2023-01-20T21:20:39.572Z,1.00
2023-01-20T21:23:08.949Z,1.00
2023-01-20T21:25:36.012Z,1.00
2023-01-20T21:28:03.139Z,1.00
2023-01-20T21:30:30.220Z,1.00
2023-01-20T21:32:57.134Z,1.00
2023-01-20T21:35:24.387Z,1.00
2023-01-20T21:37:55.231Z,1.00
2023-01-20T21:40:22.677Z,1.00
2023-01-20T21:42:53.718Z,1.00
2023-01-20T21:45:20.887Z,1.00
2023-01-20T21:47:50.075Z,1.00
2023-01-20T21:50:35.957Z,1.00
2023-01-20T21:53:03.023Z,1.00
2023-01-20T21:55:30.254Z,1.00
2023-01-20T21:57:57.619Z,1.00
2023-01-20T22:00:24.872Z,1.00
2023-01-20T22:02:52.221Z,1.00
2023-01-20T22:05:19.469Z,1.00
2023-01-20T22:07:48.000Z,1.00
2023-01-20T22:10:15.491Z,1.00
2023-01-20T22:16:26.988Z,1.00
2023-01-20T22:19:10.861Z,1.00
2023-01-20T22:21:39.168Z,1.00
2023-01-20T22:24:08.796Z,1.00
2023-01-20T22:26:35.519Z,1.00
2023-01-20T22:29:02.301Z,1.00
2023-01-20T22:31:30.148Z,1.00
2023-01-20T22:33:58.426Z,1.00
2023-01-20T22:36:25.254Z,1.00
2023-01-20T22:38:54.356Z,1.00
2023-01-20T22:41:21.713Z,1.00
2023-01-20T22:43:50.515Z,1.00
2023-01-20T22:46:19.544Z,1.00
2023-01-20T22:48:46.856Z,1.00
2023-01-20T22:51:18.380Z,1.00
2023-01-20T22:53:45.479Z,1.00
2023-01-20T22:56:14.816Z,1.00
2023-01-20T22:58:42.481Z,1.00
2023-01-20T23:01:13.720Z,1.00
2023-01-20T23:03:42.214Z,1.00
2023-01-20T23:06:09.857Z,1.00
2023-01-20T23:08:36.663Z,1.00
2023-01-20T23:11:09.518Z,1.00
2023-01-20T23:13:36.584Z,1.00
2023-01-20T23:16:04.763Z,1.00
2023-01-20T23:18:32.396Z,1.00
2023-01-20T23:20:59.893Z,1.00
2023-01-20T23:23:27.299Z,1.00
2023-01-20T23:26:06.117Z,1.00
2023-01-20T23:28:33.615Z,1.00
2023-01-20T23:31:05.154Z,1.00
2023-01-20T23:33:32.521Z,1.00
2023-01-20T23:36:06.686Z,1.00
2023-01-20T23:38:33.594Z,1.00
2023-01-20T23:41:00.640Z,1.00
2023-01-20T23:43:27.400Z,1.00
2023-01-20T23:45:57.584Z,1.00
2023-01-20T23:48:24.411Z,1.00
2023-01-20T23:50:51.723Z,1.00
2023-01-20T23:53:18.619Z,1.00
2023-01-20T23:55:45.588Z,1.00
2023-01-20T23:58:12.346Z,1.00
